Time;durP1;ratioP1;P1;durP2;ratioP2;P2;SDS_P1;SDS_P2;PMS_P1;PMS_P2;Temp;Humidity;BMP_temperature;BMP_pressure;BME280_temperature;BME280_humidity;BME280_pressure;Samples;Min_cycle;Max_cycle;Signal;HPM_P1;HPM_P2
2023/07/24 00:01:55;;;;;;;5.23;4.53;;;;;;;;;;5051611;28;20386;-51
2023/07/24 00:04:21;;;;;;;4.30;3.90;;;;;;;;;;5051285;28;20434;-50
2023/07/24 00:06:47;;;;;;;4.17;3.73;;;;;;;;;;5051559;28;20433;-51
2023/07/24 00:09:13;;;;;;;5.20;4.30;;;;;;;;;;5051409;28;20474;-48
2023/07/24 00:11:39;;;;;;;4.33;4.03;;;;;;;;;;5051309;28;20418;-52
2023/07/24 00:14:05;;;;;;;4.10;3.80;;;;;;;;;;5051487;28;20392;-51
2023/07/24 00:16:31;;;;;;;5.57;4.60;;;;;;;;;;5051542;28;20966;-50
2023/07/24 00:18:57;;;;;;;3.90;3.60;;;;;;;;;;5050937;28;20490;-51
2023/07/24 00:21:23;;;;;;;6.00;4.40;;;;;;;;;;5050967;28;20412;-50
2023/07/24 00:23:49;;;;;;;3.73;3.43;;;;;;;;;;5051333;28;20449;-51
2023/07/24 00:26:15;;;;;;;4.20;3.80;;;;;;;;;;5051251;28;20470;-48
2023/07/24 00:28:41;;;;;;;3.70;3.40;;;;;;;;;;5051265;28;20429;-50
2023/07/24 00:31:07;;;;;;;4.27;3.97;;;;;;;;;;5046124;28;20498;-50
2023/07/24 00:33:33;;;;;;;5.37;4.20;;;;;;;;;;5051194;28;20905;-50
2023/07/24 00:35:59;;;;;;;4.53;4.13;;;;;;;;;;5053146;28;20411;-51
2023/07/24 00:38:25;;;;;;;4.93;4.30;;;;;;;;;;5055110;28;20462;-50
2023/07/24 00:40:51;;;;;;;4.63;4.10;;;;;;;;;;5055053;28;20434;-51
2023/07/24 00:43:17;;;;;;;4.60;4.00;;;;;;;;;;5055123;28;20408;-50
2023/07/24 00:45:43;;;;;;;5.50;4.27;;;;;;;;;;5055024;28;20380;-49
2023/07/24 00:48:10;;;;;;;6.93;4.27;;;;;;;;;;5054883;28;20465;-49
2023/07/24 00:50:36;;;;;;;6.13;4.13;;;;;;;;;;5054566;28;20450;-50
2023/07/24 00:53:02;;;;;;;5.43;4.50;;;;;;;;;;5055146;28;20402;-50
2023/07/24 00:55:28;;;;;;;4.27;3.83;;;;;;;;;;5055134;28;20392;-50
2023/07/24 00:57:54;;;;;;;4.00;3.60;;;;;;;;;;5054971;28;20406;-49
2023/07/24 01:00:20;;;;;;;5.10;3.80;;;;;;;;;;5054651;28;20818;-50
2023/07/24 01:02:46;;;;;;;4.23;3.83;;;;;;;;;;5054050;28;20419;-49
2023/07/24 01:05:14;;;;;;;4.70;4.23;;;;;;;;;;5054161;28;20416;-48
2023/07/24 01:07:41;;;;;;;4.07;3.77;;;;;;;;;;5047970;28;20802;-50
2023/07/24 01:10:07;;;;;;;3.90;3.53;;;;;;;;;;5054465;28;20426;-49
2023/07/24 01:12:37;;;;;;;4.17;3.80;;;;;;;;;;5054585;28;20507;-49
2023/07/24 01:15:20;;;;;;;4.30;3.90;;;;;;;;;;5054526;28;20918;-51
2023/07/24 01:17:48;;;;;;;5.50;3.50;;;;;;;;;;5043164;28;20412;-51
2023/07/24 01:20:16;;;;;;;6.03;4.13;;;;;;;;;;5051404;28;20404;-49
2023/07/24 01:23:08;;;;;;;4.43;4.00;;;;;;;;;;5054554;28;20393;-50
2023/07/24 01:25:35;;;;;;;8.50;4.87;;;;;;;;;;5052153;28;20415;-49
2023/07/24 01:28:01;;;;;;;7.70;3.80;;;;;;;;;;5049441;28;20993;-51
2023/07/24 01:30:27;;;;;;;6.23;4.07;;;;;;;;;;5053671;28;20926;-49
2023/07/24 01:32:53;;;;;;;5.33;3.60;;;;;;;;;;5054313;28;20407;-50
2023/07/24 01:35:19;;;;;;;4.30;3.70;;;;;;;;;;5054042;28;20480;-49
2023/07/24 01:37:47;;;;;;;3.00;2.80;;;;;;;;;;5054186;28;20808;-50
2023/07/24 01:40:13;;;;;;;4.93;3.70;;;;;;;;;;5054230;28;20959;-50
2023/07/24 01:42:39;;;;;;;3.90;3.60;;;;;;;;;;5054121;28;20890;-50
2023/07/24 01:45:06;;;;;;;4.20;3.80;;;;;;;;;;5053932;28;20487;-51
2023/07/24 01:47:32;;;;;;;3.97;3.67;;;;;;;;;;5053135;28;20470;-48
2023/07/24 01:49:58;;;;;;;4.20;3.80;;;;;;;;;;5053475;28;20453;-48
2023/07/24 01:52:24;;;;;;;5.43;4.10;;;;;;;;;;5053847;28;20390;-50
2023/07/24 01:54:50;;;;;;;5.17;4.10;;;;;;;;;;5053671;28;20410;-48
2023/07/24 01:57:16;;;;;;;4.30;3.50;;;;;;;;;;5053633;28;20416;-50
2023/07/24 01:59:43;;;;;;;3.90;3.50;;;;;;;;;;5053525;28;20455;-51
2023/07/24 02:02:09;;;;;;;5.23;3.90;;;;;;;;;;5054310;28;20493;-51
2023/07/24 02:04:35;;;;;;;3.90;3.60;;;;;;;;;;5053603;28;20497;-49
2023/07/24 02:07:01;;;;;;;4.47;4.03;;;;;;;;;;5053546;28;20477;-50
2023/07/24 02:09:27;;;;;;;4.90;4.10;;;;;;;;;;5053287;28;20441;-50
2023/07/24 02:11:54;;;;;;;5.77;3.70;;;;;;;;;;5053418;28;20378;-51
2023/07/24 02:14:20;;;;;;;9.20;4.17;;;;;;;;;;5051829;28;20763;-50
2023/07/24 02:16:46;;;;;;;4.63;3.40;;;;;;;;;;5044933;28;20451;-48
2023/07/24 02:19:12;;;;;;;3.83;3.53;;;;;;;;;;5047673;28;20529;-51
2023/07/24 02:21:40;;;;;;;3.97;3.57;;;;;;;;;;5053151;28;20902;-50
2023/07/24 02:24:06;;;;;;;5.00;4.00;;;;;;;;;;5053234;28;20446;-50
2023/07/24 02:26:32;;;;;;;4.53;4.13;;;;;;;;;;5045156;28;20464;-50
2023/07/24 02:28:58;;;;;;;4.93;4.50;;;;;;;;;;5055828;28;20423;-50
2023/07/24 02:31:24;;;;;;;4.13;3.83;;;;;;;;;;5052925;28;20485;-50
2023/07/24 02:33:50;;;;;;;9.10;4.53;;;;;;;;;;5051444;28;20399;-49
2023/07/24 02:36:16;;;;;;;4.87;4.37;;;;;;;;;;5049826;28;20936;-49
2023/07/24 02:38:42;;;;;;;4.53;4.13;;;;;;;;;;5038178;28;20978;-50
2023/07/24 02:41:08;;;;;;;5.10;4.60;;;;;;;;;;5044612;28;20609;-50
2023/07/24 02:43:33;;;;;;;4.97;4.17;;;;;;;;;;5051355;28;20416;-50
2023/07/24 02:46:03;;;;;;;6.20;5.00;;;;;;;;;;5052727;28;20430;-50
2023/07/24 02:48:29;;;;;;;8.93;5.17;;;;;;;;;;5052857;28;20402;-50
2023/07/24 02:50:55;;;;;;;6.87;4.70;;;;;;;;;;5052378;28;20805;-51
2023/07/24 02:53:21;;;;;;;5.80;4.97;;;;;;;;;;5050771;28;20378;-50
2023/07/24 02:55:47;;;;;;;5.63;4.93;;;;;;;;;;5045741;28;20378;-50
2023/07/24 02:58:13;;;;;;;4.93;4.43;;;;;;;;;;5042523;28;20428;-49
2023/07/24 03:00:39;;;;;;;6.83;5.13;;;;;;;;;;5051632;28;20430;-51
2023/07/24 03:03:05;;;;;;;6.37;5.60;;;;;;;;;;5041123;28;20416;-51
2023/07/24 03:05:31;;;;;;;6.07;5.00;;;;;;;;;;5044931;28;20469;-49
2023/07/24 03:07:57;;;;;;;7.10;4.67;;;;;;;;;;5046743;28;20546;-50
2023/07/24 03:10:24;;;;;;;5.00;4.60;;;;;;;;;;5050064;28;20473;-50
2023/07/24 03:12:50;;;;;;;6.20;4.67;;;;;;;;;;5052462;28;20380;-50
2023/07/24 03:15:16;;;;;;;7.80;4.97;;;;;;;;;;5049472;28;20809;-49
2023/07/24 03:17:42;;;;;;;7.00;5.13;;;;;;;;;;5052347;28;20416;-48
2023/07/24 03:20:09;;;;;;;7.03;4.80;;;;;;;;;;5045568;28;20416;-50
2023/07/24 03:22:35;;;;;;;5.87;5.17;;;;;;;;;;5041645;28;20416;-50
2023/07/24 03:25:00;;;;;;;7.90;5.83;;;;;;;;;;5038720;28;20411;-51
2023/07/24 03:27:26;;;;;;;5.90;4.70;;;;;;;;;;5047237;28;20472;-48
2023/07/24 03:29:52;;;;;;;7.77;5.10;;;;;;;;;;5043692;28;20401;-51
2023/07/24 03:32:18;;;;;;;6.40;5.77;;;;;;;;;;5049327;28;20532;-50
2023/07/24 03:34:44;;;;;;;7.27;5.47;;;;;;;;;;5051880;28;20417;-50
2023/07/24 03:37:10;;;;;;;5.50;4.90;;;;;;;;;;5044068;28;20389;-50
2023/07/24 03:39:36;;;;;;;10.40;4.73;;;;;;;;;;5051966;28;20445;-49
2023/07/24 03:42:02;;;;;;;5.43;4.93;;;;;;;;;;5050603;28;20425;-49
2023/07/24 03:44:30;;;;;;;7.33;5.53;;;;;;;;;;5047210;28;20418;-49
2023/07/24 03:46:56;;;;;;;5.87;5.27;;;;;;;;;;5047815;28;20825;-49
2023/07/24 03:49:23;;;;;;;5.80;5.30;;;;;;;;;;5049134;28;20413;-50
2023/07/24 03:51:49;;;;;;;7.93;5.60;;;;;;;;;;5051574;28;20401;-49
2023/07/24 03:54:15;;;;;;;8.47;5.23;;;;;;;;;;5042195;28;20483;-48
2023/07/24 03:56:41;;;;;;;9.50;5.47;;;;;;;;;;5040604;28;20456;-51
2023/07/24 03:59:08;;;;;;;6.50;5.33;;;;;;;;;;5056195;28;20492;-50
2023/07/24 04:01:44;;;;;;;7.03;5.30;;;;;;;;;;5051481;28;20426;-49
2023/07/24 04:04:10;;;;;;;22.07;6.87;;;;;;;;;;5051896;28;20392;-50
2023/07/24 04:06:37;;;;;;;5.53;4.87;;;;;;;;;;5050154;28;20977;-48
2023/07/24 04:09:03;;;;;;;5.83;5.23;;;;;;;;;;5050036;28;20489;-50
2023/07/24 04:11:29;;;;;;;5.97;5.03;;;;;;;;;;5049736;28;20497;-50
2023/07/24 04:13:55;;;;;;;8.90;6.10;;;;;;;;;;5051415;28;20405;-49
2023/07/24 04:16:21;;;;;;;6.20;4.80;;;;;;;;;;5045289;28;20388;-50
2023/07/24 04:18:47;;;;;;;9.50;5.27;;;;;;;;;;5050600;28;20484;-47
2023/07/24 04:21:14;;;;;;;6.53;5.30;;;;;;;;;;5050063;28;20410;-49
2023/07/24 04:23:42;;;;;;;6.43;4.97;;;;;;;;;;5043183;28;20764;-49
2023/07/24 04:26:08;;;;;;;5.93;5.37;;;;;;;;;;5051338;28;20824;-49
2023/07/24 04:28:34;;;;;;;9.70;5.20;;;;;;;;;;5051283;28;20417;-48
2023/07/24 04:31:01;;;;;;;8.30;5.50;;;;;;;;;;5051122;28;20724;-51
2023/07/24 04:33:28;;;;;;;10.00;5.97;;;;;;;;;;5051289;28;20393;-50
2023/07/24 04:35:55;;;;;;;9.47;5.90;;;;;;;;;;5050189;28;20489;-48
2023/07/24 04:38:21;;;;;;;8.53;5.33;;;;;;;;;;5051249;28;20919;-49
2023/07/24 04:40:47;;;;;;;7.23;6.00;;;;;;;;;;5051167;28;20404;-50
2023/07/24 04:43:14;;;;;;;10.47;5.57;;;;;;;;;;5051638;28;20873;-49
2023/07/24 04:45:40;;;;;;;8.13;5.60;;;;;;;;;;5043052;28;20417;-50
2023/07/24 04:48:06;;;;;;;13.20;5.40;;;;;;;;;;5051052;28;20965;-51
2023/07/24 04:50:32;;;;;;;7.80;5.00;;;;;;;;;;5049911;28;20982;-49
2023/07/24 04:52:59;;;;;;;5.87;4.90;;;;;;;;;;5051148;28;20382;-49
2023/07/24 04:55:25;;;;;;;7.50;5.33;;;;;;;;;;5051376;28;20413;-48
2023/07/24 04:57:51;;;;;;;5.77;5.00;;;;;;;;;;5051115;28;20494;-48
2023/07/24 05:00:17;;;;;;;6.13;5.53;;;;;;;;;;5051182;28;20414;-51
2023/07/24 05:02:43;;;;;;;11.87;5.57;;;;;;;;;;5049989;28;20761;-50
2023/07/24 05:05:09;;;;;;;6.80;5.70;;;;;;;;;;5050921;28;20406;-51
2023/07/24 05:07:36;;;;;;;6.67;4.90;;;;;;;;;;5050932;28;20828;-49
2023/07/24 05:10:02;;;;;;;7.13;5.60;;;;;;;;;;5050748;28;20459;-51
2023/07/24 05:12:28;;;;;;;8.17;5.80;;;;;;;;;;5050809;28;20907;-49
2023/07/24 05:14:54;;;;;;;8.77;5.70;;;;;;;;;;5050824;28;20425;-51
2023/07/24 05:17:20;;;;;;;9.97;5.10;;;;;;;;;;5049828;28;20397;-49
2023/07/24 05:19:46;;;;;;;7.40;5.87;;;;;;;;;;5050639;28;20435;-51
2023/07/24 05:22:12;;;;;;;6.90;5.53;;;;;;;;;;5051387;28;21018;-51
2023/07/24 05:24:38;;;;;;;7.60;5.60;;;;;;;;;;5054404;28;20766;-50
2023/07/24 05:27:05;;;;;;;8.80;5.83;;;;;;;;;;5054508;28;20420;-51
2023/07/24 05:29:31;;;;;;;10.20;6.40;;;;;;;;;;5054251;28;20416;-50
2023/07/24 05:31:58;;;;;;;6.70;5.83;;;;;;;;;;5049521;28;20410;-49
2023/07/24 05:34:27;;;;;;;8.93;5.70;;;;;;;;;;5054159;28;20413;-51
2023/07/24 05:36:53;;;;;;;18.63;8.27;;;;;;;;;;5048201;28;20747;-50
2023/07/24 05:39:19;;;;;;;7.67;6.23;;;;;;;;;;5053931;28;20407;-51
2023/07/24 05:41:45;;;;;;;8.90;6.37;;;;;;;;;;5054047;28;20390;-50
2023/07/24 05:44:11;;;;;;;7.43;5.67;;;;;;;;;;5053099;28;20413;-49
2023/07/24 05:46:37;;;;;;;7.97;6.50;;;;;;;;;;5048512;28;20534;-50
2023/07/24 05:49:03;;;;;;;12.60;6.30;;;;;;;;;;5048824;28;20425;-51
2023/07/24 05:51:29;;;;;;;9.37;6.40;;;;;;;;;;5047115;28;20392;-51
2023/07/24 05:53:55;;;;;;;10.43;7.10;;;;;;;;;;5052388;28;20408;-48
2023/07/24 05:56:21;;;;;;;9.10;6.03;;;;;;;;;;5052326;28;20429;-48
2023/07/24 05:58:47;;;;;;;9.20;6.20;;;;;;;;;;5053501;28;20393;-51
2023/07/24 06:01:13;;;;;;;10.47;7.00;;;;;;;;;;5052180;28;20421;-49
2023/07/24 06:03:41;;;;;;;11.57;5.80;;;;;;;;;;5053169;28;20377;-49
2023/07/24 06:06:07;;;;;;;13.03;6.70;;;;;;;;;;5051901;28;20448;-51
2023/07/24 06:08:33;;;;;;;9.83;7.43;;;;;;;;;;5051386;28;20504;-50
2023/07/24 06:10:59;;;;;;;9.03;6.57;;;;;;;;;;5052459;28;20419;-51
2023/07/24 06:13:26;;;;;;;6.90;5.50;;;;;;;;;;5050190;28;20396;-50
2023/07/24 06:15:52;;;;;;;9.27;5.30;;;;;;;;;;5053656;28;20425;-50
2023/07/24 06:18:18;;;;;;;16.30;6.03;;;;;;;;;;5053441;28;20422;-50
2023/07/24 06:20:45;;;;;;;8.83;5.67;;;;;;;;;;5053192;28;20520;-50
2023/07/24 06:23:10;;;;;;;7.47;5.80;;;;;;;;;;5044927;28;20399;-52
2023/07/24 06:25:36;;;;;;;9.80;6.07;;;;;;;;;;5050082;28;20478;-49
2023/07/24 06:28:04;;;;;;;8.60;5.93;;;;;;;;;;5050276;28;20522;-51
2023/07/24 06:30:30;;;;;;;8.70;5.13;;;;;;;;;;5051765;28;20422;-50
2023/07/24 06:32:56;;;;;;;9.97;6.20;;;;;;;;;;5051729;28;20384;-51
2023/07/24 06:35:22;;;;;;;11.23;6.13;;;;;;;;;;5052979;28;20389;-49
2023/07/24 06:37:48;;;;;;;9.03;6.80;;;;;;;;;;5052133;28;20416;-50
2023/07/24 06:40:14;;;;;;;13.00;5.40;;;;;;;;;;5049817;28;20414;-50
2023/07/24 06:42:40;;;;;;;8.63;6.33;;;;;;;;;;5053000;28;20436;-50
2023/07/24 06:45:06;;;;;;;9.13;6.17;;;;;;;;;;5052901;28;20422;-51
2023/07/24 06:47:32;;;;;;;12.40;6.13;;;;;;;;;;5052824;28;20429;-51
2023/07/24 06:49:58;;;;;;;17.50;6.93;;;;;;;;;;5052461;28;20443;-50
2023/07/24 06:52:24;;;;;;;9.43;7.20;;;;;;;;;;5051725;28;20417;-50
2023/07/24 06:54:50;;;;;;;8.90;6.53;;;;;;;;;;5052463;28;20414;-48
2023/07/24 06:57:16;;;;;;;12.07;7.37;;;;;;;;;;5052678;28;20400;-51
2023/07/24 06:59:42;;;;;;;7.67;6.03;;;;;;;;;;5052509;28;20430;-51
2023/07/24 07:02:09;;;;;;;9.10;6.13;;;;;;;;;;5052606;28;20828;-51
2023/07/24 07:04:35;;;;;;;7.23;5.77;;;;;;;;;;5051488;28;20429;-49
2023/07/24 07:07:01;;;;;;;6.43;5.60;;;;;;;;;;5052372;28;20442;-49
2023/07/24 07:09:27;;;;;;;9.37;5.97;;;;;;;;;;5052183;28;20426;-50
2023/07/24 07:11:53;;;;;;;8.40;6.40;;;;;;;;;;5052203;28;20870;-50
2023/07/24 07:14:19;;;;;;;6.60;6.00;;;;;;;;;;5051151;28;20828;-51
2023/07/24 07:16:47;;;;;;;9.33;6.90;;;;;;;;;;5052488;28;20604;-51
2023/07/24 07:19:13;;;;;;;9.07;6.93;;;;;;;;;;5051509;28;20850;-49
2023/07/24 07:21:39;;;;;;;7.63;5.40;;;;;;;;;;5051967;28;20390;-52
2023/07/24 07:24:05;;;;;;;9.07;5.97;;;;;;;;;;5052239;28;21030;-50
2023/07/24 07:26:31;;;;;;;6.60;6.00;;;;;;;;;;5051999;28;20537;-49
2023/07/24 07:28:57;;;;;;;7.73;5.50;;;;;;;;;;5046490;28;20525;-49
2023/07/24 07:31:23;;;;;;;10.47;5.90;;;;;;;;;;5051546;28;20973;-49
2023/07/24 07:33:49;;;;;;;5.80;5.20;;;;;;;;;;5047699;28;20509;-51
2023/07/24 07:36:15;;;;;;;11.13;5.70;;;;;;;;;;5051903;28;20438;-51
2023/07/24 07:38:41;;;;;;;7.90;6.10;;;;;;;;;;5051813;28;20381;-50
2023/07/24 07:41:09;;;;;;;6.83;5.07;;;;;;;;;;5045480;28;20426;-50
2023/07/24 07:43:37;;;;;;;7.63;4.83;;;;;;;;;;5053276;28;20407;-50
2023/07/24 07:46:03;;;;;;;6.33;5.73;;;;;;;;;;5051297;28;20776;-50
2023/07/24 07:48:29;;;;;;;8.63;5.80;;;;;;;;;;5051674;28;20824;-51
2023/07/24 07:50:56;;;;;;;6.03;5.30;;;;;;;;;;5051345;28;20428;-50
2023/07/24 07:53:22;;;;;;;7.87;5.80;;;;;;;;;;5051562;28;20490;-49
2023/07/24 07:55:56;;;;;;;6.00;5.17;;;;;;;;;;5051731;28;20419;-50
2023/07/24 07:58:22;;;;;;;7.37;5.00;;;;;;;;;;5050060;28;20390;-51
2023/07/24 08:00:48;;;;;;;7.57;5.67;;;;;;;;;;5051636;28;20932;-51
2023/07/24 08:03:14;;;;;;;7.90;5.93;;;;;;;;;;5052130;28;20433;-50
2023/07/24 08:05:40;;;;;;;9.83;5.50;;;;;;;;;;5051491;28;20423;-50
2023/07/24 08:08:06;;;;;;;7.53;5.90;;;;;;;;;;5050411;28;20482;-49
2023/07/24 08:10:32;;;;;;;8.60;5.60;;;;;;;;;;5050985;28;20413;-51
2023/07/24 08:12:58;;;;;;;6.20;5.60;;;;;;;;;;5050933;28;20444;-45
2023/07/24 08:15:24;;;;;;;10.13;5.37;;;;;;;;;;5048907;28;20782;-45
2023/07/24 08:17:50;;;;;;;5.50;4.97;;;;;;;;;;5051068;28;20424;-51
2023/07/24 08:20:16;;;;;;;5.80;5.20;;;;;;;;;;5045366;28;20920;-51
2023/07/24 08:22:43;;;;;;;5.77;5.10;;;;;;;;;;5040428;28;20800;-50
2023/07/24 08:25:09;;;;;;;9.00;5.40;;;;;;;;;;5040779;28;20419;-52
2023/07/24 08:27:35;;;;;;;9.07;5.77;;;;;;;;;;5052652;28;20576;-46
2023/07/24 08:30:02;;;;;;;6.33;5.13;;;;;;;;;;5045266;28;20408;-46
2023/07/24 08:32:28;;;;;;;5.87;4.57;;;;;;;;;;5047945;28;20567;-47
2023/07/24 08:34:54;;;;;;;14.90;6.43;;;;;;;;;;5049889;28;20397;-49
2023/07/24 08:37:21;;;;;;;8.27;4.30;;;;;;;;;;5046843;28;20440;-45
2023/07/24 08:39:47;;;;;;;6.00;5.30;;;;;;;;;;5050075;28;20429;-46
2023/07/24 08:42:14;;;;;;;6.60;4.27;;;;;;;;;;5050174;28;20852;-52
2023/07/24 08:44:40;;;;;;;5.67;4.70;;;;;;;;;;5051078;28;20405;-46
2023/07/24 08:47:09;;;;;;;21.43;5.77;;;;;;;;;;5050113;28;20460;-48
2023/07/24 08:49:38;;;;;;;5.23;3.70;;;;;;;;;;5050978;28;20502;-45
2023/07/24 08:52:05;;;;;;;4.97;4.20;;;;;;;;;;5051089;28;20428;-45
2023/07/24 08:54:33;;;;;;;4.00;3.63;;;;;;;;;;5051019;28;20406;-46
2023/07/24 08:57:00;;;;;;;5.07;3.63;;;;;;;;;;5052952;28;20480;-47
2023/07/24 08:59:26;;;;;;;7.03;4.33;;;;;;;;;;5054794;28;20530;-45
2023/07/24 09:01:53;;;;;;;5.87;4.17;;;;;;;;;;5053606;28;20417;-45
2023/07/24 09:04:19;;;;;;;3.70;3.40;;;;;;;;;;5054894;28;20417;-45
2023/07/24 09:06:45;;;;;;;8.00;3.37;;;;;;;;;;5054739;28;20466;-45
2023/07/24 09:09:16;;;;;;;4.00;3.60;;;;;;;;;;5049341;28;20441;-48
2023/07/24 09:11:46;;;;;;;8.47;3.73;;;;;;;;;;5048817;28;20421;-45
2023/07/24 09:14:20;;;;;;;4.33;3.80;;;;;;;;;;5050196;28;20462;-48
2023/07/24 09:16:46;;;;;;;5.70;3.40;;;;;;;;;;5046940;28;20436;-45
2023/07/24 09:19:18;;;;;;;4.00;3.60;;;;;;;;;;5052036;28;20443;-45
2023/07/24 09:21:44;;;;;;;3.47;3.20;;;;;;;;;;5051062;28;20405;-49
2023/07/24 09:24:14;;;;;;;5.13;3.83;;;;;;;;;;5054473;28;20699;-45
2023/07/24 09:26:47;;;;;;;5.50;4.20;;;;;;;;;;5046449;28;20462;-45
2023/07/24 09:29:13;;;;;;;38.50;6.37;;;;;;;;;;5053523;28;20443;-51
2023/07/24 09:31:39;;;;;;;6.03;4.00;;;;;;;;;;5054098;28;20441;-48
2023/07/24 09:34:14;;;;;;;8.70;3.87;;;;;;;;;;5054380;28;20471;-46
2023/07/24 09:36:40;;;;;;;11.50;3.90;;;;;;;;;;5045092;28;20432;-46
2023/07/24 09:39:10;;;;;;;5.70;3.60;;;;;;;;;;5049762;28;20518;-50
2023/07/24 09:41:36;;;;;;;5.47;3.60;;;;;;;;;;5053816;28;20413;-45
2023/07/24 09:44:02;;;;;;;7.57;3.83;;;;;;;;;;5053496;28;20474;-45
2023/07/24 09:46:32;;;;;;;3.97;3.67;;;;;;;;;;5054007;28;20431;-45
2023/07/24 09:48:59;;;;;;;3.80;3.50;;;;;;;;;;5050169;28;20431;-46
2023/07/24 09:51:25;;;;;;;4.80;3.77;;;;;;;;;;5053512;28;20520;-48
2023/07/24 09:54:18;;;;;;;3.53;3.23;;;;;;;;;;5053798;28;20405;-48
2023/07/24 09:56:44;;;;;;;3.73;3.30;;;;;;;;;;5038183;28;20426;-48
2023/07/24 09:59:11;;;;;;;4.97;3.37;;;;;;;;;;5054129;28;20484;-46
2023/07/24 10:01:37;;;;;;;4.30;3.67;;;;;;;;;;5053690;28;20383;-46
2023/07/24 10:04:04;;;;;;;3.97;3.57;;;;;;;;;;5053851;28;20416;-46
2023/07/24 10:06:31;;;;;;;7.17;3.93;;;;;;;;;;5053423;28;20424;-45
2023/07/24 10:08:57;;;;;;;7.20;5.07;;;;;;;;;;5053013;28;20426;-46
2023/07/24 10:11:25;;;;;;;4.80;4.33;;;;;;;;;;5052834;28;20425;-46
2023/07/24 10:13:51;;;;;;;4.73;4.43;;;;;;;;;;5053490;28;20400;-49
2023/07/24 10:16:17;;;;;;;5.63;4.77;;;;;;;;;;5053460;28;20420;-47
2023/07/24 10:18:46;;;;;;;4.90;4.50;;;;;;;;;;5053492;28;20424;-45
2023/07/24 10:21:13;;;;;;;5.07;4.40;;;;;;;;;;5053321;28;20409;-47
2023/07/24 10:23:43;;;;;;;5.70;4.30;;;;;;;;;;5046236;28;20779;-46
2023/07/24 10:26:11;;;;;;;5.07;4.60;;;;;;;;;;5052749;28;20912;-45
2023/07/24 10:28:41;;;;;;;5.73;4.90;;;;;;;;;;5053174;28;20461;-45
2023/07/24 10:31:08;;;;;;;6.03;5.43;;;;;;;;;;5051850;28;20419;-48
2023/07/24 10:33:37;;;;;;;6.37;5.77;;;;;;;;;;5053065;28;20931;-45
2023/07/24 10:36:09;;;;;;;5.00;4.60;;;;;;;;;;5053271;28;20395;-49
2023/07/24 10:38:38;;;;;;;6.47;5.77;;;;;;;;;;5051849;28;20801;-48
2023/07/24 10:41:05;;;;;;;6.63;5.50;;;;;;;;;;5050159;28;20425;-46
2023/07/24 10:43:41;;;;;;;9.07;6.30;;;;;;;;;;5041662;28;20936;-45
2023/07/24 10:46:07;;;;;;;6.30;5.00;;;;;;;;;;5052377;28;20397;-46
2023/07/24 10:48:33;;;;;;;9.33;5.03;;;;;;;;;;5052800;28;20505;-46
2023/07/24 10:51:06;;;;;;;5.03;4.53;;;;;;;;;;5052520;28;20428;-45
2023/07/24 10:53:35;;;;;;;7.13;4.70;;;;;;;;;;5052797;28;20513;-48
2023/07/24 10:56:01;;;;;;;4.90;4.40;;;;;;;;;;5052614;28;20417;-49
2023/07/24 10:58:27;;;;;;;6.33;5.10;;;;;;;;;;5052917;28;20494;-46
2023/07/24 11:00:53;;;;;;;5.00;4.60;;;;;;;;;;5052595;28;20401;-45
2023/07/24 11:03:20;;;;;;;6.03;4.50;;;;;;;;;;5052765;28;20470;-46
2023/07/24 11:05:48;;;;;;;4.30;3.83;;;;;;;;;;5052599;28;20893;-49
2023/07/24 11:08:15;;;;;;;4.23;3.87;;;;;;;;;;5051341;28;20481;-49
2023/07/24 11:10:48;;;;;;;4.73;4.23;;;;;;;;;;5052133;28;20437;-45
2023/07/24 11:13:16;;;;;;;4.33;4.03;;;;;;;;;;5052123;28;20413;-45
2023/07/24 11:15:42;;;;;;;5.07;4.30;;;;;;;;;;5052453;28;20488;-45
2023/07/24 11:18:08;;;;;;;7.10;4.30;;;;;;;;;;5052468;28;20424;-45
2023/07/24 11:20:43;;;;;;;8.53;4.93;;;;;;;;;;5050885;28;20445;-45
2023/07/24 11:23:10;;;;;;;5.57;5.07;;;;;;;;;;5052274;28;20486;-46
2023/07/24 11:25:36;;;;;;;6.00;5.40;;;;;;;;;;5052099;28;20448;-46
2023/07/24 11:28:04;;;;;;;6.90;5.50;;;;;;;;;;5052216;28;20577;-48
2023/07/24 11:30:31;;;;;;;8.03;4.63;;;;;;;;;;5036039;28;20934;-50
2023/07/24 11:32:59;;;;;;;6.27;5.67;;;;;;;;;;5045442;28;20779;-46
2023/07/24 11:35:25;;;;;;;5.30;4.80;;;;;;;;;;5052019;28;20419;-46
2023/07/24 11:37:51;;;;;;;4.83;4.40;;;;;;;;;;5052077;28;20524;-46
2023/07/24 11:40:19;;;;;;;5.37;4.60;;;;;;;;;;5051971;28;20413;-46
2023/07/24 11:42:46;;;;;;;9.50;5.47;;;;;;;;;;5051834;28;20401;-46
2023/07/24 11:45:12;;;;;;;4.93;4.53;;;;;;;;;;5052122;28;20448;-46
2023/07/24 11:47:48;;;;;;;7.90;5.07;;;;;;;;;;5051797;28;20452;-46
2023/07/24 11:50:15;;;;;;;10.30;5.20;;;;;;;;;;5051587;28;20962;-46
2023/07/24 11:52:46;;;;;;;5.83;4.53;;;;;;;;;;5051816;28;20412;-46
2023/07/24 11:55:13;;;;;;;5.10;4.60;;;;;;;;;;5051979;28;20430;-45
2023/07/24 11:57:39;;;;;;;4.20;3.87;;;;;;;;;;5051866;28;20414;-48
2023/07/24 12:00:06;;;;;;;5.30;4.80;;;;;;;;;;5051565;28;20553;-48
2023/07/24 12:02:52;;;;;;;6.00;4.50;;;;;;;;;;5051617;28;20606;-45
2023/07/24 12:05:18;;;;;;;4.80;4.40;;;;;;;;;;5051419;28;20379;-46
2023/07/24 12:07:47;;;;;;;5.60;4.20;;;;;;;;;;5051709;28;20456;-46
2023/07/24 12:10:14;;;;;;;5.77;5.20;;;;;;;;;;5051392;28;20456;-50
2023/07/24 12:12:44;;;;;;;12.90;5.77;;;;;;;;;;5051608;28;20765;-46
2023/07/24 12:15:10;;;;;;;12.00;5.67;;;;;;;;;;5051556;28;20394;-51
2023/07/24 12:17:36;;;;;;;9.10;3.00;;;;;;;;;;5051310;28;20431;-49
2023/07/24 12:20:04;;;;;;;13.43;3.97;;;;;;;;;;5051468;28;20781;-48
2023/07/24 12:22:30;;;;;;;8.53;2.90;;;;;;;;;;5051468;28;20425;-46
2023/07/24 12:24:57;;;;;;;11.30;2.30;;;;;;;;;;5051508;28;20425;-45
2023/07/24 12:27:24;;;;;;;2.30;1.70;;;;;;;;;;5051508;28;20503;-45
2023/07/24 12:29:50;;;;;;;3.90;2.03;;;;;;;;;;5031304;28;20458;-45
2023/07/24 12:32:16;;;;;;;3.00;1.97;;;;;;;;;;5050596;28;20421;-45
2023/07/24 12:34:42;;;;;;;8.97;2.40;;;;;;;;;;5055324;28;20394;-47
2023/07/24 12:37:09;;;;;;;3.40;1.90;;;;;;;;;;5055565;28;20924;-48
2023/07/24 12:39:35;;;;;;;3.70;1.63;;;;;;;;;;5055266;28;20765;-49
2023/07/24 12:42:02;;;;;;;2.10;1.70;;;;;;;;;;5055150;28;20412;-46
2023/07/24 12:44:28;;;;;;;1.73;1.63;;;;;;;;;;5055273;28;20369;-46
2023/07/24 12:46:54;;;;;;;1.70;1.60;;;;;;;;;;5055472;28;20749;-46
2023/07/24 12:49:20;;;;;;;3.67;2.07;;;;;;;;;;5054956;28;20407;-46
2023/07/24 12:51:46;;;;;;;3.50;1.77;;;;;;;;;;5054936;28;20386;-47
2023/07/24 12:54:12;;;;;;;3.10;1.70;;;;;;;;;;5055039;28;20413;-46
2023/07/24 12:56:40;;;;;;;2.80;1.57;;;;;;;;;;5055016;28;20417;-48
2023/07/24 12:59:07;;;;;;;1.90;1.80;;;;;;;;;;5055408;28;20437;-47
2023/07/24 13:01:33;;;;;;;6.30;1.83;;;;;;;;;;5054653;28;20416;-47
2023/07/24 13:04:00;;;;;;;2.30;1.60;;;;;;;;;;5054850;28;20405;-47
2023/07/24 13:06:26;;;;;;;1.60;1.40;;;;;;;;;;5054921;28;20483;-46
2023/07/24 13:08:52;;;;;;;3.27;1.77;;;;;;;;;;5054903;28;20867;-46
2023/07/24 13:11:18;;;;;;;3.07;1.90;;;;;;;;;;5054480;28;20904;-47
2023/07/24 13:13:44;;;;;;;2.00;1.90;;;;;;;;;;5054741;28;20420;-47
2023/07/24 13:16:10;;;;;;;5.83;2.23;;;;;;;;;;5054684;28;20904;-46
2023/07/24 13:18:37;;;;;;;8.17;2.13;;;;;;;;;;5054703;28;20947;-48
2023/07/24 13:21:03;;;;;;;2.43;2.23;;;;;;;;;;5054424;28;20937;-46
2023/07/24 13:23:30;;;;;;;3.00;1.80;;;;;;;;;;5054595;28;20455;-46
2023/07/24 13:25:56;;;;;;;2.57;1.67;;;;;;;;;;5054671;28;20406;-46
2023/07/24 13:28:23;;;;;;;2.00;1.53;;;;;;;;;;5054298;28;20533;-47
2023/07/24 13:30:49;;;;;;;2.20;2.00;;;;;;;;;;5054263;28;20504;-47
2023/07/24 13:33:15;;;;;;;1.90;1.80;;;;;;;;;;5054525;28;20503;-50
2023/07/24 13:35:43;;;;;;;2.73;1.47;;;;;;;;;;5054242;28;20402;-49
2023/07/24 13:38:10;;;;;;;2.17;1.80;;;;;;;;;;5054012;28;20430;-46
2023/07/24 13:40:37;;;;;;;2.00;1.90;;;;;;;;;;5050982;28;20774;-48
2023/07/24 13:43:03;;;;;;;3.67;1.70;;;;;;;;;;5047894;28;20491;-46
2023/07/24 13:45:29;;;;;;;3.00;1.50;;;;;;;;;;5052138;28;20382;-46
2023/07/24 13:47:57;;;;;;;1.80;1.70;;;;;;;;;;5054082;28;20468;-47
2023/07/24 13:50:23;;;;;;;2.03;1.83;;;;;;;;;;5053412;28;20966;-47
2023/07/24 13:52:49;;;;;;;2.30;1.70;;;;;;;;;;5054026;28;20411;-48
2023/07/24 13:55:15;;;;;;;3.40;1.80;;;;;;;;;;5053905;28;20424;-45
2023/07/24 13:57:41;;;;;;;4.90;2.10;;;;;;;;;;5052115;28;20437;-49
2023/07/24 14:00:07;;;;;;;2.87;2.20;;;;;;;;;;5053556;28;20919;-48
2023/07/24 14:02:33;;;;;;;2.20;2.10;;;;;;;;;;5053784;28;20424;-50
2023/07/24 14:04:59;;;;;;;7.50;2.47;;;;;;;;;;5053599;28;20470;-46
2023/07/24 14:07:25;;;;;;;2.97;2.67;;;;;;;;;;5059950;28;20983;-46
2023/07/24 14:09:51;;;;;;;3.97;2.30;;;;;;;;;;5053324;28;21010;-47
2023/07/24 14:12:17;;;;;;;2.00;1.90;;;;;;;;;;5052159;28;20947;-47
2023/07/24 14:14:43;;;;;;;2.50;2.30;;;;;;;;;;5053741;28;20775;-46
2023/07/24 14:17:09;;;;;;;2.53;2.33;;;;;;;;;;5053530;28;20791;-47
2023/07/24 14:19:35;;;;;;;8.00;2.20;;;;;;;;;;5053296;28;20794;-51
2023/07/24 14:22:01;;;;;;;4.03;2.13;;;;;;;;;;5053816;28;20406;-49
2023/07/24 14:24:27;;;;;;;2.30;2.10;;;;;;;;;;5053201;28;20420;-49
2023/07/24 14:26:53;;;;;;;2.90;2.50;;;;;;;;;;5051832;28;20645;-46
2023/07/24 14:29:19;;;;;;;3.87;2.47;;;;;;;;;;5053102;28;20433;-46
2023/07/24 14:31:45;;;;;;;3.30;2.30;;;;;;;;;;5053089;28;20405;-46
2023/07/24 14:34:12;;;;;;;3.67;2.30;;;;;;;;;;5053391;28;20420;-46
2023/07/24 14:36:38;;;;;;;2.93;2.53;;;;;;;;;;5053669;28;20496;-51
2023/07/24 14:39:05;;;;;;;2.70;2.53;;;;;;;;;;5052936;28;20478;-51